sensor_id;sensor_type;location;lat;lon;timestamp;temperature;humidity
67147;DHT22;54061;52.036;5.558;2022-11-15T00:01:45;7.10;99.90
67147;DHT22;54061;52.036;5.558;2022-11-15T00:04:10;7.20;99.90
67147;DHT22;54061;52.036;5.558;2022-11-15T00:06:36;7.20;99.90
67147;DHT22;54061;52.036;5.558;2022-11-15T00:09:02;7.10;99.90
67147;DHT22;54061;52.036;5.558;2022-11-15T00:11:28;7.20;99.90
67147;DHT22;54061;52.036;5.558;2022-11-15T00:13:57;7.20;99.90
67147;DHT22;54061;52.036;5.558;2022-11-15T00:16:23;7.10;99.90
67147;DHT22;54061;52.036;5.558;2022-11-15T00:18:50;7.20;99.90
67147;DHT22;54061;52.036;5.558;2022-11-15T00:21:17;7.20;99.90
67147;DHT22;54061;52.036;5.558;2022-11-15T00:23:42;7.20;99.90
67147;DHT22;54061;52.036;5.558;2022-11-15T00:26:12;7.20;99.90
67147;DHT22;54061;52.036;5.558;2022-11-15T00:28:38;7.20;99.90
67147;DHT22;54061;52.036;5.558;2022-11-15T00:31:05;7.20;99.90
67147;DHT22;54061;52.036;5.558;2022-11-15T00:33:32;7.20;99.90
67147;DHT22;54061;52.036;5.558;2022-11-15T00:36:06;7.30;99.90
67147;DHT22;54061;52.036;5.558;2022-11-15T00:38:33;7.30;99.90
67147;DHT22;54061;52.036;5.558;2022-11-15T00:40:59;7.30;99.90
67147;DHT22;54061;52.036;5.558;2022-11-15T00:43:25;7.30;99.90
67147;DHT22;54061;52.036;5.558;2022-11-15T00:45:50;7.30;99.90
67147;DHT22;54061;52.036;5.558;2022-11-15T00:48:16;7.30;99.90
67147;DHT22;54061;52.036;5.558;2022-11-15T00:50:41;7.30;99.90
67147;DHT22;54061;52.036;5.558;2022-11-15T00:53:07;7.40;99.90
67147;DHT22;54061;52.036;5.558;2022-11-15T00:55:32;7.40;99.90
67147;DHT22;54061;52.036;5.558;2022-11-15T00:57:58;7.40;99.90
67147;DHT22;54061;52.036;5.558;2022-11-15T01:00:23;7.40;99.90
67147;DHT22;54061;52.036;5.558;2022-11-15T01:02:49;7.40;99.90
67147;DHT22;54061;52.036;5.558;2022-11-15T01:05:15;7.40;99.90
67147;DHT22;54061;52.036;5.558;2022-11-15T01:07:40;7.50;99.90
67147;DHT22;54061;52.036;5.558;2022-11-15T01:10:06;7.40;99.90
67147;DHT22;54061;52.036;5.558;2022-11-15T01:12:32;7.40;99.90
67147;DHT22;54061;52.036;5.558;2022-11-15T01:14:58;7.50;99.90
67147;DHT22;54061;52.036;5.558;2022-11-15T01:17:24;7.50;99.90
67147;DHT22;54061;52.036;5.558;2022-11-15T01:19:49;7.50;99.90
67147;DHT22;54061;52.036;5.558;2022-11-15T01:22:15;7.50;99.90
67147;DHT22;54061;52.036;5.558;2022-11-15T01:24:40;7.50;99.90
67147;DHT22;54061;52.036;5.558;2022-11-15T01:27:06;7.60;99.90
67147;DHT22;54061;52.036;5.558;2022-11-15T01:29:32;7.60;99.90
67147;DHT22;54061;52.036;5.558;2022-11-15T01:31:57;7.60;99.90
67147;DHT22;54061;52.036;5.558;2022-11-15T01:34:23;7.60;99.90
67147;DHT22;54061;52.036;5.558;2022-11-15T01:36:48;7.60;99.90
67147;DHT22;54061;52.036;5.558;2022-11-15T01:39:14;7.60;99.90
67147;DHT22;54061;52.036;5.558;2022-11-15T01:41:41;7.70;99.90
67147;DHT22;54061;52.036;5.558;2022-11-15T01:44:36;7.60;99.90
67147;DHT22;54061;52.036;5.558;2022-11-15T01:47:07;7.70;99.90
67147;DHT22;54061;52.036;5.558;2022-11-15T01:49:35;7.70;99.90
67147;DHT22;54061;52.036;5.558;2022-11-15T01:52:06;7.70;99.90
67147;DHT22;54061;52.036;5.558;2022-11-15T01:54:32;7.70;99.90
67147;DHT22;54061;52.036;5.558;2022-11-15T01:57:02;7.80;99.90
67147;DHT22;54061;52.036;5.558;2022-11-15T01:59:29;7.80;99.90
67147;DHT22;54061;52.036;5.558;2022-11-15T02:01:55;7.80;99.90
67147;DHT22;54061;52.036;5.558;2022-11-15T02:04:26;7.90;99.90
67147;DHT22;54061;52.036;5.558;2022-11-15T02:06:53;7.90;99.90
67147;DHT22;54061;52.036;5.558;2022-11-15T02:09:19;8.00;99.90
67147;DHT22;54061;52.036;5.558;2022-11-15T02:11:46;8.00;99.90
67147;DHT22;54061;52.036;5.558;2022-11-15T02:14:13;8.00;99.90
67147;DHT22;54061;52.036;5.558;2022-11-15T02:41:32;8.40;99.90
67147;DHT22;54061;52.036;5.558;2022-11-15T02:44:03;8.50;99.90
67147;DHT22;54061;52.036;5.558;2022-11-15T02:47:00;8.50;99.90
67147;DHT22;54061;52.036;5.558;2022-11-15T02:50:05;8.60;99.90
67147;DHT22;54061;52.036;5.558;2022-11-15T02:52:31;8.70;99.90
67147;DHT22;54061;52.036;5.558;2022-11-15T02:54:59;8.80;99.90
67147;DHT22;54061;52.036;5.558;2022-11-15T03:00:10;8.90;99.90
67147;DHT22;54061;52.036;5.558;2022-11-15T03:11:09;8.90;99.90
67147;DHT22;54061;52.036;5.558;2022-11-15T03:19:34;8.90;99.90
67147;DHT22;54061;52.036;5.558;2022-11-15T03:22:03;8.90;99.90
67147;DHT22;54061;52.036;5.558;2022-11-15T03:24:34;8.90;99.90
67147;DHT22;54061;52.036;5.558;2022-11-15T03:27:02;9.00;99.90
67147;DHT22;54061;52.036;5.558;2022-11-15T03:29:33;9.00;99.90
67147;DHT22;54061;52.036;5.558;2022-11-15T03:32:05;9.10;99.90
67147;DHT22;54061;52.036;5.558;2022-11-15T03:34:39;9.10;99.90
67147;DHT22;54061;52.036;5.558;2022-11-15T03:37:05;9.20;99.90
67147;DHT22;54061;52.036;5.558;2022-11-15T03:39:32;9.20;99.90
67147;DHT22;54061;52.036;5.558;2022-11-15T03:42:08;9.20;99.90
67147;DHT22;54061;52.036;5.558;2022-11-15T03:44:48;9.30;99.90
67147;DHT22;54061;52.036;5.558;2022-11-15T03:47:31;9.40;99.90
67147;DHT22;54061;52.036;5.558;2022-11-15T03:50:13;9.40;99.90
67147;DHT22;54061;52.036;5.558;2022-11-15T03:52:41;9.50;99.90
67147;DHT22;54061;52.036;5.558;2022-11-15T03:55:10;9.50;99.90
67147;DHT22;54061;52.036;5.558;2022-11-15T03:57:36;9.60;99.90
67147;DHT22;54061;52.036;5.558;2022-11-15T04:00:02;9.60;99.90
67147;DHT22;54061;52.036;5.558;2022-11-15T04:02:28;9.70;99.90
67147;DHT22;54061;52.036;5.558;2022-11-15T04:04:53;9.70;99.90
67147;DHT22;54061;52.036;5.558;2022-11-15T04:07:19;9.80;99.90
67147;DHT22;54061;52.036;5.558;2022-11-15T04:09:44;9.80;99.90
67147;DHT22;54061;52.036;5.558;2022-11-15T04:12:36;9.80;99.90
67147;DHT22;54061;52.036;5.558;2022-11-15T04:15:07;10.00;99.90
67147;DHT22;54061;52.036;5.558;2022-11-15T04:17:41;10.00;99.90
67147;DHT22;54061;52.036;5.558;2022-11-15T04:20:16;10.00;99.90
67147;DHT22;54061;52.036;5.558;2022-11-15T04:23:03;10.00;99.90
67147;DHT22;54061;52.036;5.558;2022-11-15T04:25:50;10.10;99.90
67147;DHT22;54061;52.036;5.558;2022-11-15T04:28:16;10.10;99.90
67147;DHT22;54061;52.036;5.558;2022-11-15T04:30:42;10.10;99.90
67147;DHT22;54061;52.036;5.558;2022-11-15T04:33:08;10.10;99.90
67147;DHT22;54061;52.036;5.558;2022-11-15T04:35:33;10.20;99.90
67147;DHT22;54061;52.036;5.558;2022-11-15T04:38:00;10.20;99.90
67147;DHT22;54061;52.036;5.558;2022-11-15T04:40:26;10.20;99.90
67147;DHT22;54061;52.036;5.558;2022-11-15T04:42:51;10.20;99.90
67147;DHT22;54061;52.036;5.558;2022-11-15T04:45:17;10.20;99.90
67147;DHT22;54061;52.036;5.558;2022-11-15T04:47:46;10.30;99.90
67147;DHT22;54061;52.036;5.558;2022-11-15T04:50:13;10.30;99.90
67147;DHT22;54061;52.036;5.558;2022-11-15T04:52:41;10.30;99.90
67147;DHT22;54061;52.036;5.558;2022-11-15T04:55:08;10.30;99.90
67147;DHT22;54061;52.036;5.558;2022-11-15T04:57:33;10.30;99.90
67147;DHT22;54061;52.036;5.558;2022-11-15T04:59:59;10.40;99.90
67147;DHT22;54061;52.036;5.558;2022-11-15T05:02:24;10.40;99.90
67147;DHT22;54061;52.036;5.558;2022-11-15T05:05:10;10.40;99.90
67147;DHT22;54061;52.036;5.558;2022-11-15T05:07:35;10.40;99.90
67147;DHT22;54061;52.036;5.558;2022-11-15T05:10:01;10.40;99.90
67147;DHT22;54061;52.036;5.558;2022-11-15T05:12:26;10.40;99.90
67147;DHT22;54061;52.036;5.558;2022-11-15T05:14:52;10.40;99.90
67147;DHT22;54061;52.036;5.558;2022-11-15T05:17:17;10.40;99.90
67147;DHT22;54061;52.036;5.558;2022-11-15T05:19:43;10.50;99.90
67147;DHT22;54061;52.036;5.558;2022-11-15T05:22:09;10.50;99.90
67147;DHT22;54061;52.036;5.558;2022-11-15T05:24:35;10.50;99.90
67147;DHT22;54061;52.036;5.558;2022-11-15T05:27:00;10.50;99.90
67147;DHT22;54061;52.036;5.558;2022-11-15T05:29:26;10.50;99.90
67147;DHT22;54061;52.036;5.558;2022-11-15T05:31:51;10.50;99.90
67147;DHT22;54061;52.036;5.558;2022-11-15T05:34:17;10.50;99.90
67147;DHT22;54061;52.036;5.558;2022-11-15T05:36:44;10.50;99.90
67147;DHT22;54061;52.036;5.558;2022-11-15T05:39:12;10.50;99.90
67147;DHT22;54061;52.036;5.558;2022-11-15T05:41:45;10.60;99.90
67147;DHT22;54061;52.036;5.558;2022-11-15T05:44:14;10.60;99.90
67147;DHT22;54061;52.036;5.558;2022-11-15T05:46:41;10.60;99.90
67147;DHT22;54061;52.036;5.558;2022-11-15T05:49:10;10.70;99.90
67147;DHT22;54061;52.036;5.558;2022-11-15T05:51:37;10.60;99.90
67147;DHT22;54061;52.036;5.558;2022-11-15T05:54:03;10.70;99.90
67147;DHT22;54061;52.036;5.558;2022-11-15T05:56:30;10.70;99.90
67147;DHT22;54061;52.036;5.558;2022-11-15T05:58:56;10.70;99.90
67147;DHT22;54061;52.036;5.558;2022-11-15T06:01:24;10.70;99.90
67147;DHT22;54061;52.036;5.558;2022-11-15T06:03:50;10.80;99.90
67147;DHT22;54061;52.036;5.558;2022-11-15T06:06:15;10.70;99.90
67147;DHT22;54061;52.036;5.558;2022-11-15T06:08:41;10.80;99.90
67147;DHT22;54061;52.036;5.558;2022-11-15T06:11:07;10.80;99.90
67147;DHT22;54061;52.036;5.558;2022-11-15T06:13:33;10.80;99.90
67147;DHT22;54061;52.036;5.558;2022-11-15T06:15:59;10.80;99.90
67147;DHT22;54061;52.036;5.558;2022-11-15T06:18:25;10.80;99.90
67147;DHT22;54061;52.036;5.558;2022-11-15T06:20:51;10.90;99.90
67147;DHT22;54061;52.036;5.558;2022-11-15T06:23:17;10.80;99.90
67147;DHT22;54061;52.036;5.558;2022-11-15T06:25:42;10.90;99.90
67147;DHT22;54061;52.036;5.558;2022-11-15T06:28:08;10.90;99.90
67147;DHT22;54061;52.036;5.558;2022-11-15T06:30:33;10.90;99.90
67147;DHT22;54061;52.036;5.558;2022-11-15T06:33:01;10.90;99.90
67147;DHT22;54061;52.036;5.558;2022-11-15T06:35:27;10.90;99.90
67147;DHT22;54061;52.036;5.558;2022-11-15T06:37:52;10.90;99.90
67147;DHT22;54061;52.036;5.558;2022-11-15T06:40:18;10.90;99.90
67147;DHT22;54061;52.036;5.558;2022-11-15T06:42:43;10.90;99.90
67147;DHT22;54061;52.036;5.558;2022-11-15T06:45:09;10.90;99.90
67147;DHT22;54061;52.036;5.558;2022-11-15T06:47:35;10.90;99.90
67147;DHT22;54061;52.036;5.558;2022-11-15T06:50:00;10.90;99.90
67147;DHT22;54061;52.036;5.558;2022-11-15T06:52:26;10.90;99.90
67147;DHT22;54061;52.036;5.558;2022-11-15T06:54:52;10.90;99.90
67147;DHT22;54061;52.036;5.558;2022-11-15T06:57:17;10.90;99.90
67147;DHT22;54061;52.036;5.558;2022-11-15T06:59:43;10.90;99.90
67147;DHT22;54061;52.036;5.558;2022-11-15T07:02:14;11.00;99.90
67147;DHT22;54061;52.036;5.558;2022-11-15T07:04:40;11.00;99.90
67147;DHT22;54061;52.036;5.558;2022-11-15T07:07:05;10.90;99.90
67147;DHT22;54061;52.036;5.558;2022-11-15T07:09:31;10.90;99.90
67147;DHT22;54061;52.036;5.558;2022-11-15T07:11:56;10.90;99.90
67147;DHT22;54061;52.036;5.558;2022-11-15T07:14:22;11.00;99.90
67147;DHT22;54061;52.036;5.558;2022-11-15T07:16:48;11.00;99.90
67147;DHT22;54061;52.036;5.558;2022-11-15T07:19:13;11.00;99.90
67147;DHT22;54061;52.036;5.558;2022-11-15T07:21:39;11.00;99.90
67147;DHT22;54061;52.036;5.558;2022-11-15T07:24:04;11.00;99.90
67147;DHT22;54061;52.036;5.558;2022-11-15T07:26:30;11.00;99.90
67147;DHT22;54061;52.036;5.558;2022-11-15T07:28:55;11.00;99.90
67147;DHT22;54061;52.036;5.558;2022-11-15T07:31:21;11.00;99.90
67147;DHT22;54061;52.036;5.558;2022-11-15T07:33:47;11.00;99.90
67147;DHT22;54061;52.036;5.558;2022-11-15T07:36:13;11.00;99.90
67147;DHT22;54061;52.036;5.558;2022-11-15T07:38:38;11.00;99.90
67147;DHT22;54061;52.036;5.558;2022-11-15T07:41:06;11.00;99.90
67147;DHT22;54061;52.036;5.558;2022-11-15T07:43:32;11.00;99.90
67147;DHT22;54061;52.036;5.558;2022-11-15T07:46:03;11.00;99.90
67147;DHT22;54061;52.036;5.558;2022-11-15T07:48:29;11.00;99.90
67147;DHT22;54061;52.036;5.558;2022-11-15T07:50:55;11.00;99.90
67147;DHT22;54061;52.036;5.558;2022-11-15T07:53:20;11.00;99.90
67147;DHT22;54061;52.036;5.558;2022-11-15T07:55:46;11.00;99.90
67147;DHT22;54061;52.036;5.558;2022-11-15T07:58:12;11.00;99.90
67147;DHT22;54061;52.036;5.558;2022-11-15T08:00:38;11.10;99.90
67147;DHT22;54061;52.036;5.558;2022-11-15T08:03:14;11.10;99.90
67147;DHT22;54061;52.036;5.558;2022-11-15T08:05:41;11.10;99.90
67147;DHT22;54061;52.036;5.558;2022-11-15T08:08:08;11.10;99.90
67147;DHT22;54061;52.036;5.558;2022-11-15T08:10:34;11.10;99.90
67147;DHT22;54061;52.036;5.558;2022-11-15T08:13:05;11.10;99.90
67147;DHT22;54061;52.036;5.558;2022-11-15T08:15:32;11.10;99.90
67147;DHT22;54061;52.036;5.558;2022-11-15T08:18:04;11.10;99.90
67147;DHT22;54061;52.036;5.558;2022-11-15T08:20:30;11.10;99.90
67147;DHT22;54061;52.036;5.558;2022-11-15T08:22:57;11.20;99.90
67147;DHT22;54061;52.036;5.558;2022-11-15T08:25:23;11.10;99.90
67147;DHT22;54061;52.036;5.558;2022-11-15T08:27:53;11.10;99.90
67147;DHT22;54061;52.036;5.558;2022-11-15T08:30:19;11.10;99.90
67147;DHT22;54061;52.036;5.558;2022-11-15T08:32:44;11.20;99.90
67147;DHT22;54061;52.036;5.558;2022-11-15T08:35:10;11.20;99.90
67147;DHT22;54061;52.036;5.558;2022-11-15T08:37:36;11.20;99.90
67147;DHT22;54061;52.036;5.558;2022-11-15T08:40:02;11.30;99.90
67147;DHT22;54061;52.036;5.558;2022-11-15T08:42:27;11.30;99.90
67147;DHT22;54061;52.036;5.558;2022-11-15T08:44:53;11.30;99.90
67147;DHT22;54061;52.036;5.558;2022-11-15T08:47:18;11.30;99.90
67147;DHT22;54061;52.036;5.558;2022-11-15T08:49:44;11.30;99.90
67147;DHT22;54061;52.036;5.558;2022-11-15T08:52:09;11.30;99.90
67147;DHT22;54061;52.036;5.558;2022-11-15T08:54:35;11.30;99.90
67147;DHT22;54061;52.036;5.558;2022-11-15T08:57:00;11.50;99.90
67147;DHT22;54061;52.036;5.558;2022-11-15T08:59:26;11.80;99.90
67147;DHT22;54061;52.036;5.558;2022-11-15T09:01:52;11.70;99.90
67147;DHT22;54061;52.036;5.558;2022-11-15T09:04:17;11.60;99.90
67147;DHT22;54061;52.036;5.558;2022-11-15T09:06:43;11.60;99.90
67147;DHT22;54061;52.036;5.558;2022-11-15T09:09:08;11.60;99.90
67147;DHT22;54061;52.036;5.558;2022-11-15T09:11:34;11.60;99.90
67147;DHT22;54061;52.036;5.558;2022-11-15T09:13:59;11.60;99.90
67147;DHT22;54061;52.036;5.558;2022-11-15T09:16:25;11.60;99.90
67147;DHT22;54061;52.036;5.558;2022-11-15T09:18:51;11.60;99.90
67147;DHT22;54061;52.036;5.558;2022-11-15T09:21:17;11.50;99.90
67147;DHT22;54061;52.036;5.558;2022-11-15T09:23:42;11.50;99.90
67147;DHT22;54061;52.036;5.558;2022-11-15T09:26:08;11.50;99.90
67147;DHT22;54061;52.036;5.558;2022-11-15T09:28:34;11.50;99.90
67147;DHT22;54061;52.036;5.558;2022-11-15T09:31:03;11.50;99.90
67147;DHT22;54061;52.036;5.558;2022-11-15T09:33:29;11.50;99.90
67147;DHT22;54061;52.036;5.558;2022-11-15T09:36:08;11.50;99.90
67147;DHT22;54061;52.036;5.558;2022-11-15T09:38:34;11.50;99.90
67147;DHT22;54061;52.036;5.558;2022-11-15T09:49:14;11.70;99.90
67147;DHT22;54061;52.036;5.558;2022-11-15T09:51:43;12.20;99.90
67147;DHT22;54061;52.036;5.558;2022-11-15T09:54:33;12.60;99.90
67147;DHT22;54061;52.036;5.558;2022-11-15T09:57:17;12.90;99.90
67147;DHT22;54061;52.036;5.558;2022-11-15T10:00:19;13.00;99.90
67147;DHT22;54061;52.036;5.558;2022-11-15T10:03:07;13.20;99.90
67147;DHT22;54061;52.036;5.558;2022-11-15T10:05:39;13.00;99.90
67147;DHT22;54061;52.036;5.558;2022-11-15T10:08:23;12.70;99.90
67147;DHT22;54061;52.036;5.558;2022-11-15T10:10:55;12.50;99.90
67147;DHT22;54061;52.036;5.558;2022-11-15T10:13:26;12.50;99.90
67147;DHT22;54061;52.036;5.558;2022-11-15T10:16:01;12.60;99.90
67147;DHT22;54061;52.036;5.558;2022-11-15T10:18:36;12.60;99.90
67147;DHT22;54061;52.036;5.558;2022-11-15T10:21:16;12.60;99.90
67147;DHT22;54061;52.036;5.558;2022-11-15T10:23:42;12.50;99.90
67147;DHT22;54061;52.036;5.558;2022-11-15T10:26:11;12.40;99.90
67147;DHT22;54061;52.036;5.558;2022-11-15T10:28:38;12.40;99.90
67147;DHT22;54061;52.036;5.558;2022-11-15T10:31:25;12.40;99.90
67147;DHT22;54061;52.036;5.558;2022-11-15T10:34:05;12.30;99.90
67147;DHT22;54061;52.036;5.558;2022-11-15T10:36:37;12.30;99.90
67147;DHT22;54061;52.036;5.558;2022-11-15T10:39:03;12.30;99.90
67147;DHT22;54061;52.036;5.558;2022-11-15T10:41:30;12.40;99.90
67147;DHT22;54061;52.036;5.558;2022-11-15T10:44:31;12.40;99.90
67147;DHT22;54061;52.036;5.558;2022-11-15T10:49:28;12.40;99.70
67147;DHT22;54061;52.036;5.558;2022-11-15T10:51:58;12.40;99.30
67147;DHT22;54061;52.036;5.558;2022-11-15T10:54:29;12.40;99.90
67147;DHT22;54061;52.036;5.558;2022-11-15T10:56:59;12.40;99.90
67147;DHT22;54061;52.036;5.558;2022-11-15T10:59:29;12.30;98.90
67147;DHT22;54061;52.036;5.558;2022-11-15T11:01:55;12.20;97.90
67147;DHT22;54061;52.036;5.558;2022-11-15T11:04:21;12.30;99.90
67147;DHT22;54061;52.036;5.558;2022-11-15T11:09:33;12.60;99.30
67147;DHT22;54061;52.036;5.558;2022-11-15T11:12:00;12.70;97.00
67147;DHT22;54061;52.036;5.558;2022-11-15T11:14:34;12.80;97.50
67147;DHT22;54061;52.036;5.558;2022-11-15T11:17:18;12.90;98.20
67147;DHT22;54061;52.036;5.558;2022-11-15T11:25:30;13.30;97.00
67147;DHT22;54061;52.036;5.558;2022-11-15T11:31:31;14.00;94.60
67147;DHT22;54061;52.036;5.558;2022-11-15T11:36:17;13.20;93.20
67147;DHT22;54061;52.036;5.558;2022-11-15T11:47:23;12.70;96.50
67147;DHT22;54061;52.036;5.558;2022-11-15T11:49:53;12.70;96.60
67147;DHT22;54061;52.036;5.558;2022-11-15T11:52:38;12.60;95.40
67147;DHT22;54061;52.036;5.558;2022-11-15T11:55:22;12.70;94.80
67147;DHT22;54061;52.036;5.558;2022-11-15T12:00:26;12.80;93.10
67147;DHT22;54061;52.036;5.558;2022-11-15T12:05:44;12.80;95.60
67147;DHT22;54061;52.036;5.558;2022-11-15T12:08:18;12.90;93.70
67147;DHT22;54061;52.036;5.558;2022-11-15T12:10:50;12.90;93.40
67147;DHT22;54061;52.036;5.558;2022-11-15T12:13:21;13.00;93.40
67147;DHT22;54061;52.036;5.558;2022-11-15T12:15:56;13.00;92.80
67147;DHT22;54061;52.036;5.558;2022-11-15T12:18:24;13.00;91.70
67147;DHT22;54061;52.036;5.558;2022-11-15T12:21:08;12.90;93.40
67147;DHT22;54061;52.036;5.558;2022-11-15T12:23:46;12.90;91.40
67147;DHT22;54061;52.036;5.558;2022-11-15T12:26:20;12.90;93.20
67147;DHT22;54061;52.036;5.558;2022-11-15T12:28:59;12.80;92.00
67147;DHT22;54061;52.036;5.558;2022-11-15T12:31:39;12.80;91.50
67147;DHT22;54061;52.036;5.558;2022-11-15T12:36:48;12.60;90.70
67147;DHT22;54061;52.036;5.558;2022-11-15T12:39:15;12.60;91.70
67147;DHT22;54061;52.036;5.558;2022-11-15T12:41:43;12.60;93.60
67147;DHT22;54061;52.036;5.558;2022-11-15T13:02:44;12.50;91.50
67147;DHT22;54061;52.036;5.558;2022-11-15T13:17:54;12.60;92.80
67147;DHT22;54061;52.036;5.558;2022-11-15T13:20:29;12.60;93.00
67147;DHT22;54061;52.036;5.558;2022-11-15T13:23:13;12.60;92.80
67147;DHT22;54061;52.036;5.558;2022-11-15T13:25:48;12.50;92.30
67147;DHT22;54061;52.036;5.558;2022-11-15T13:28:20;12.40;90.70
67147;DHT22;54061;52.036;5.558;2022-11-15T13:33:16;12.30;92.50
67147;DHT22;54061;52.036;5.558;2022-11-15T13:35:46;12.30;91.60
67147;DHT22;54061;52.036;5.558;2022-11-15T13:40:51;12.30;91.70
67147;DHT22;54061;52.036;5.558;2022-11-15T13:43:27;12.20;92.80
67147;DHT22;54061;52.036;5.558;2022-11-15T13:46:13;12.20;91.80
67147;DHT22;54061;52.036;5.558;2022-11-15T13:48:41;12.20;91.70
67147;DHT22;54061;52.036;5.558;2022-11-15T13:51:16;12.20;92.00
67147;DHT22;54061;52.036;5.558;2022-11-15T13:53:46;12.10;92.10
67147;DHT22;54061;52.036;5.558;2022-11-15T13:56:14;12.20;92.70
67147;DHT22;54061;52.036;5.558;2022-11-15T13:58:40;12.10;93.20
67147;DHT22;54061;52.036;5.558;2022-11-15T14:01:06;12.10;92.50
67147;DHT22;54061;52.036;5.558;2022-11-15T14:03:46;12.10;91.80
67147;DHT22;54061;52.036;5.558;2022-11-15T14:06:15;12.10;92.10
67147;DHT22;54061;52.036;5.558;2022-11-15T14:08:57;12.10;92.40
67147;DHT22;54061;52.036;5.558;2022-11-15T14:11:23;12.10;91.90
67147;DHT22;54061;52.036;5.558;2022-11-15T14:16:38;12.00;91.70
67147;DHT22;54061;52.036;5.558;2022-11-15T14:19:05;12.00;91.20
67147;DHT22;54061;52.036;5.558;2022-11-15T14:21:31;12.10;92.90
67147;DHT22;54061;52.036;5.558;2022-11-15T14:24:20;12.00;92.70
67147;DHT22;54061;52.036;5.558;2022-11-15T14:26:46;12.00;91.00
67147;DHT22;54061;52.036;5.558;2022-11-15T14:29:30;12.00;92.70
67147;DHT22;54061;52.036;5.558;2022-11-15T14:32:15;12.10;91.40
67147;DHT22;54061;52.036;5.558;2022-11-15T14:34:42;12.00;91.00
67147;DHT22;54061;52.036;5.558;2022-11-15T14:37:25;12.10;92.50
67147;DHT22;54061;52.036;5.558;2022-11-15T14:39:52;12.10;91.70
67147;DHT22;54061;52.036;5.558;2022-11-15T14:42:18;12.10;92.50
67147;DHT22;54061;52.036;5.558;2022-11-15T14:44:44;12.10;92.40
67147;DHT22;54061;52.036;5.558;2022-11-15T14:47:10;12.20;92.60
67147;DHT22;54061;52.036;5.558;2022-11-15T14:49:35;12.20;92.50
67147;DHT22;54061;52.036;5.558;2022-11-15T14:52:01;12.20;92.20
67147;DHT22;54061;52.036;5.558;2022-11-15T14:54:27;12.20;91.70
67147;DHT22;54061;52.036;5.558;2022-11-15T14:56:52;12.20;91.90
67147;DHT22;54061;52.036;5.558;2022-11-15T14:59:18;12.20;91.90
67147;DHT22;54061;52.036;5.558;2022-11-15T15:01:43;12.20;92.10
67147;DHT22;54061;52.036;5.558;2022-11-15T15:04:10;12.20;91.50
67147;DHT22;54061;52.036;5.558;2022-11-15T15:06:36;12.20;92.00
67147;DHT22;54061;52.036;5.558;2022-11-15T15:09:01;12.20;92.20
67147;DHT22;54061;52.036;5.558;2022-11-15T15:11:28;12.20;92.20
67147;DHT22;54061;52.036;5.558;2022-11-15T15:13:54;12.20;91.90
67147;DHT22;54061;52.036;5.558;2022-11-15T15:16:22;12.20;92.00
67147;DHT22;54061;52.036;5.558;2022-11-15T15:18:48;12.20;91.70
67147;DHT22;54061;52.036;5.558;2022-11-15T15:21:23;12.20;91.30
67147;DHT22;54061;52.036;5.558;2022-11-15T15:23:49;12.20;90.40
67147;DHT22;54061;52.036;5.558;2022-11-15T15:26:15;12.20;91.00
67147;DHT22;54061;52.036;5.558;2022-11-15T15:28:41;12.20;91.30
67147;DHT22;54061;52.036;5.558;2022-11-15T15:31:08;12.20;91.30
67147;DHT22;54061;52.036;5.558;2022-11-15T15:33:34;12.20;90.70
67147;DHT22;54061;52.036;5.558;2022-11-15T15:36:00;12.20;91.20
67147;DHT22;54061;52.036;5.558;2022-11-15T15:38:25;12.20;90.80
67147;DHT22;54061;52.036;5.558;2022-11-15T15:40:51;12.10;91.00
67147;DHT22;54061;52.036;5.558;2022-11-15T15:43:17;12.10;91.20
67147;DHT22;54061;52.036;5.558;2022-11-15T15:45:42;12.10;91.50
67147;DHT22;54061;52.036;5.558;2022-11-15T15:48:12;12.10;91.20
67147;DHT22;54061;52.036;5.558;2022-11-15T15:50:38;12.10;90.80
67147;DHT22;54061;52.036;5.558;2022-11-15T15:53:04;12.20;90.90
67147;DHT22;54061;52.036;5.558;2022-11-15T15:55:30;12.20;91.30
67147;DHT22;54061;52.036;5.558;2022-11-15T15:57:56;12.20;91.20
67147;DHT22;54061;52.036;5.558;2022-11-15T16:00:23;12.10;90.70
67147;DHT22;54061;52.036;5.558;2022-11-15T16:02:50;12.10;90.80
67147;DHT22;54061;52.036;5.558;2022-11-15T16:05:16;12.20;90.50
67147;DHT22;54061;52.036;5.558;2022-11-15T16:07:43;12.20;90.70
67147;DHT22;54061;52.036;5.558;2022-11-15T16:10:27;12.10;90.90
67147;DHT22;54061;52.036;5.558;2022-11-15T16:12:54;12.10;89.80
67147;DHT22;54061;52.036;5.558;2022-11-15T16:15:22;12.20;90.60
67147;DHT22;54061;52.036;5.558;2022-11-15T16:17:50;12.20;90.30
67147;DHT22;54061;52.036;5.558;2022-11-15T16:20:42;12.20;90.20
67147;DHT22;54061;52.036;5.558;2022-11-15T16:23:12;12.20;88.50
67147;DHT22;54061;52.036;5.558;2022-11-15T16:25:49;12.30;90.50
67147;DHT22;54061;52.036;5.558;2022-11-15T16:28:27;12.30;89.00
67147;DHT22;54061;52.036;5.558;2022-11-15T16:31:01;12.30;89.40
67147;DHT22;54061;52.036;5.558;2022-11-15T16:33:27;12.30;90.10
67147;DHT22;54061;52.036;5.558;2022-11-15T16:35:53;12.30;90.90
67147;DHT22;54061;52.036;5.558;2022-11-15T16:38:18;12.40;90.90
67147;DHT22;54061;52.036;5.558;2022-11-15T16:40:44;12.30;90.90
67147;DHT22;54061;52.036;5.558;2022-11-15T16:43:10;12.40;90.70
67147;DHT22;54061;52.036;5.558;2022-11-15T16:45:36;12.40;90.90
67147;DHT22;54061;52.036;5.558;2022-11-15T16:48:01;12.40;90.90
67147;DHT22;54061;52.036;5.558;2022-11-15T16:50:30;12.40;91.10
67147;DHT22;54061;52.036;5.558;2022-11-15T16:52:58;12.40;91.10
67147;DHT22;54061;52.036;5.558;2022-11-15T16:55:26;12.40;91.50
67147;DHT22;54061;52.036;5.558;2022-11-15T16:57:53;12.40;91.60
67147;DHT22;54061;52.036;5.558;2022-11-15T17:00:20;12.30;91.80
67147;DHT22;54061;52.036;5.558;2022-11-15T17:02:47;12.40;91.90
67147;DHT22;54061;52.036;5.558;2022-11-15T17:05:15;12.30;92.40
67147;DHT22;54061;52.036;5.558;2022-11-15T17:07:41;12.30;92.80
67147;DHT22;54061;52.036;5.558;2022-11-15T17:10:08;12.20;93.20
67147;DHT22;54061;52.036;5.558;2022-11-15T17:12:35;12.20;93.60
67147;DHT22;54061;52.036;5.558;2022-11-15T17:15:02;12.10;94.00
67147;DHT22;54061;52.036;5.558;2022-11-15T17:17:29;12.10;94.30
67147;DHT22;54061;52.036;5.558;2022-11-15T17:19:54;12.10;94.60
67147;DHT22;54061;52.036;5.558;2022-11-15T17:22:20;12.10;94.90
67147;DHT22;54061;52.036;5.558;2022-11-15T17:24:45;12.10;95.20
67147;DHT22;54061;52.036;5.558;2022-11-15T17:27:11;12.00;96.50
67147;DHT22;54061;52.036;5.558;2022-11-15T17:29:36;12.00;96.20
67147;DHT22;54061;52.036;5.558;2022-11-15T17:32:02;11.90;96.60
67147;DHT22;54061;52.036;5.558;2022-11-15T17:34:28;11.90;97.10
67147;DHT22;54061;52.036;5.558;2022-11-15T17:36:53;11.90;97.20
67147;DHT22;54061;52.036;5.558;2022-11-15T17:39:19;11.90;97.70
67147;DHT22;54061;52.036;5.558;2022-11-15T17:41:45;11.90;97.80
67147;DHT22;54061;52.036;5.558;2022-11-15T17:44:11;11.90;97.90
67147;DHT22;54061;52.036;5.558;2022-11-15T17:46:36;11.80;98.50
67147;DHT22;54061;52.036;5.558;2022-11-15T17:49:02;11.80;98.20